Startpagina
METAR-TAF:

METAR-TAF

Vliegvelden :

Moroni, Comoren

Luchthaven Prins Said Ibrahim

breedte: 11-32S, lengte: 043-16E, hoogte: 29 m

Actueel weer

Dit bericht is 15 minuten geleden gemaakt, om 04:00 UTC
Wind 3 kt uit variabele richting
Temperatuur 28°C
Vochtigheid 79%
Druk 1011 hPa
Zicht 10 km of meer
Weinig wolken op 2000 ft

METAR: FMCH 240400Z VRB03KT 9999 FEW020 28/24 Q1011 NOSIG

Tijdstip: 07:15 (04:15 UTC)

Verwachting

Dit bericht is 28 minuten geleden gemaakt, om 03:47 UTC
Verwachting geldig van 23 om 18 UTC tot 24 om 24 UTC
Wind 2 kt uit het oosten
Zicht 10 km of meer
Weinig wolken op 2000 ft
Verspreide wolken op 3000 ft
Wijzigt naar
van 24 om 05 UTC tot 24 om 07 UTC
Wind 12 kt uit het zuidoosten
Wijzigt naar
van 24 om 16 UTC tot 24 om 18 UTC
Wind 2 kt uit variabele richting

TAF: FMCH 240347Z 2318/2424 10002KT 9999 FEW020 SCT030 BECMG 2405/2407 14012KT BECMG 2416/2418 VRB02KT

Waarnemingen en weersverwachtingen van meer dan 4000 vliegvelden (METAR en TAF).

De beschikbare stations zijn de gele en rode punten op de kaart.

Ga met uw muis naar het station om de naam te zien.

Klik dan om waarnemingen en weersverwachtingen te zien.

kaart wijzigen: klik op de groene knoppen met een zwart kruis om in te zoomen, op de groene knop met een streepje om uit te zoomen of op de groene pijlen voor aangrenzende kaarten.


METAR-TAF: